createdAt,value
2019-01-13T00:02:15.885Z,5.67
2019-01-13T00:08:07.210Z,5.80
2019-01-13T00:10:57.265Z,5.53
2019-01-13T00:15:01.302Z,5.33
2019-01-13T00:17:05.041Z,5.50
2019-01-13T00:19:54.850Z,5.33
2019-01-13T00:23:00.646Z,5.10
2019-01-13T00:25:51.094Z,5.00
2019-01-13T00:28:51.799Z,5.50
2019-01-13T00:32:05.428Z,5.67
2019-01-13T00:34:57.218Z,5.60
2019-01-13T00:38:45.505Z,5.77
2019-01-13T00:50:32.985Z,4.97
2019-01-13T01:02:10.518Z,5.10
2019-01-13T01:05:01.620Z,4.83
2019-01-13T01:19:43.478Z,4.97
2019-01-13T01:31:30.153Z,4.57
2019-01-13T01:37:35.379Z,4.57
2019-01-13T01:53:27.369Z,4.30
2019-01-13T01:56:24.590Z,4.30
2019-01-13T01:59:31.964Z,4.37
2019-01-13T02:09:19.658Z,4.80
2019-01-13T02:12:32.680Z,4.60
2019-01-13T02:19:27.271Z,4.90
2019-01-13T02:25:44.754Z,5.67
2019-01-13T02:28:42.553Z,4.67
2019-01-13T02:34:40.445Z,4.80
2019-01-13T02:37:30.474Z,5.20
2019-01-13T02:43:44.083Z,4.67
2019-01-13T02:52:34.427Z,4.63
2019-01-13T02:59:46.187Z,4.13
2019-01-13T03:08:24.080Z,4.23
2019-01-13T03:10:56.207Z,4.27
2019-01-13T03:13:27.153Z,4.20
2019-01-13T03:15:57.805Z,4.10
2019-01-13T03:18:36.361Z,4.27
2019-01-13T03:21:07.497Z,4.00
2019-01-13T03:23:53.591Z,3.87
2019-01-13T03:48:09.770Z,4.33
2019-01-13T03:59:03.207Z,3.60
2019-01-13T04:01:33.515Z,3.47
2019-01-13T04:04:06.866Z,3.60
2019-01-13T04:06:38.306Z,3.50
2019-01-13T04:09:37.387Z,3.53
2019-01-13T04:32:52.301Z,3.40
2019-01-13T05:06:21.225Z,3.40
2019-01-13T05:09:13.459Z,3.27
2019-01-13T05:26:19.941Z,3.60
2019-01-13T05:29:25.109Z,3.53
2019-01-13T05:35:16.411Z,3.60
2019-01-13T05:38:37.686Z,3.23
2019-01-13T05:53:32.706Z,3.57
2019-01-13T05:56:40.591Z,3.10
2019-01-13T05:59:39.539Z,3.60
2019-01-13T06:08:03.019Z,3.83
2019-01-13T06:16:35.511Z,3.90
2019-01-13T06:19:28.070Z,3.60
2019-01-13T06:28:32.774Z,3.43
2019-01-13T06:34:46.602Z,3.20
2019-01-13T06:37:29.563Z,3.60
2019-01-13T07:01:20.651Z,4.70
2019-01-13T07:04:10.013Z,4.40
2019-01-13T07:10:16.222Z,3.90
2019-01-13T07:20:27.571Z,4.17
2019-01-13T07:26:09.678Z,4.87
2019-01-13T07:28:52.528Z,3.80
2019-01-13T07:38:13.710Z,3.87
2019-01-13T07:41:05.447Z,3.67
2019-01-13T07:44:41.916Z,4.13
2019-01-13T07:48:05.818Z,4.13
2019-01-13T07:54:52.803Z,3.83
2019-01-13T07:57:51.983Z,3.60
2019-01-13T08:24:43.824Z,4.77
2019-01-13T08:30:25.790Z,4.37
2019-01-13T08:33:15.042Z,9.60
2019-01-13T08:36:56.531Z,9.20
2019-01-13T08:46:09.114Z,4.70
2019-01-13T08:52:40.519Z,4.17
2019-01-13T09:04:33.746Z,6.63
2019-01-13T09:07:49.436Z,5.17
2019-01-13T09:11:38.367Z,5.00
2019-01-13T09:13:41.233Z,6.97
2019-01-13T09:16:24.515Z,7.57
2019-01-13T09:28:10.510Z,5.60
2019-01-13T09:31:32.801Z,5.17
2019-01-13T09:34:40.486Z,4.80
2019-01-13T09:37:47.410Z,5.30
2019-01-13T09:40:55.724Z,4.60
2019-01-13T09:53:06.168Z,5.90
2019-01-13T09:56:05.221Z,5.23
2019-01-13T10:02:59.141Z,5.47
2019-01-13T10:03:10.200Z,4.40
2019-01-13T10:07:05.179Z,6.47
2019-01-13T10:09:56.859Z,6.10
2019-01-13T10:34:49.633Z,4.40
2019-01-13T10:37:20.416Z,5.30
2019-01-13T10:40:52.022Z,4.17
2019-01-13T10:47:29.712Z,4.50
2019-01-13T10:57:23.984Z,4.63
2019-01-13T11:00:44.995Z,5.47
2019-01-13T11:03:04.691Z,5.60
2019-01-13T11:05:38.194Z,5.50
2019-01-13T11:08:11.926Z,5.63
2019-01-13T11:10:50.371Z,4.10
2019-01-13T11:17:11.123Z,4.10
2019-01-13T11:20:34.929Z,4.00
2019-01-13T11:24:36.615Z,5.30
2019-01-13T11:26:58.871Z,4.40
2019-01-13T11:33:00.624Z,4.10
2019-01-13T11:36:09.619Z,4.10
2019-01-13T11:39:52.116Z,4.77
2019-01-13T11:45:46.668Z,5.40
2019-01-13T11:48:48.472Z,4.03
2019-01-13T11:51:52.890Z,5.17
2019-01-13T11:54:36.571Z,5.30
2019-01-13T12:10:02.300Z,4.80
2019-01-13T12:15:44.465Z,5.13
2019-01-13T12:19:00.970Z,4.57
2019-01-13T12:22:08.031Z,5.40
2019-01-13T12:28:29.559Z,3.90
2019-01-13T12:32:31.194Z,5.13
2019-01-13T12:34:51.947Z,4.50
2019-01-13T12:41:15.183Z,4.57
2019-01-13T12:44:05.818Z,4.60
2019-01-13T12:46:58.666Z,4.30
2019-01-13T12:56:01.598Z,4.97
2019-01-13T12:59:07.372Z,5.47
2019-01-13T13:04:31.549Z,5.37
2019-01-13T13:07:47.051Z,5.00
2019-01-13T13:10:55.048Z,4.80
2019-01-13T13:13:58.729Z,4.93
2019-01-13T13:17:04.280Z,4.70
2019-01-13T13:19:45.597Z,5.93
2019-01-13T13:22:49.720Z,5.07
2019-01-13T13:25:52.445Z,4.90
2019-01-13T13:28:23.430Z,5.00
2019-01-13T13:30:58.679Z,5.20
2019-01-13T13:33:48.750Z,5.13
2019-01-13T13:36:33.616Z,5.43
2019-01-13T13:39:30.979Z,5.13
2019-01-13T13:41:56.993Z,5.17
2019-01-13T13:44:50.371Z,5.50
2019-01-13T13:47:39.764Z,5.73
2019-01-13T13:50:30.202Z,5.70
2019-01-13T13:56:36.474Z,6.13
2019-01-13T13:59:24.281Z,5.80
2019-01-13T14:02:18.309Z,5.83
2019-01-13T14:05:08.615Z,6.30
2019-01-13T14:07:50.694Z,6.10
2019-01-13T14:13:42.384Z,7.00
2019-01-13T14:16:31.835Z,7.13
2019-01-13T14:19:22.464Z,6.30
2019-01-13T14:22:23.345Z,6.60
2019-01-13T14:25:20.466Z,7.10
2019-01-13T14:28:12.458Z,8.63
2019-01-13T14:30:50.136Z,8.00
2019-01-13T14:33:37.755Z,6.63
2019-01-13T14:36:36.118Z,7.67
2019-01-13T14:40:23.929Z,7.60
2019-01-13T14:42:09.866Z,7.77
2019-01-13T14:44:45.275Z,7.53
2019-01-13T14:47:17.755Z,8.80
2019-01-13T14:49:51.108Z,9.33
2019-01-13T14:52:26.984Z,8.50
2019-01-13T14:55:00.745Z,8.43
2019-01-13T14:57:31.350Z,9.23
2019-01-13T15:00:45.042Z,8.97
2019-01-13T15:03:31.217Z,8.90
2019-01-13T15:06:18.009Z,8.67
2019-01-13T15:09:09.343Z,9.37
2019-01-13T15:12:23.795Z,9.53
2019-01-13T15:15:45.336Z,8.80
2019-01-13T15:19:10.524Z,7.73
2019-01-13T15:21:29.588Z,9.53
2019-01-13T15:24:06.235Z,9.30
2019-01-13T15:27:19.506Z,11.60
2019-01-13T15:34:07.197Z,13.20
2019-01-13T15:36:10.600Z,11.43
2019-01-13T15:49:23.151Z,10.97
2019-01-13T15:52:29.738Z,11.37
2019-01-13T15:55:29.451Z,10.63
2019-01-13T16:01:37.759Z,12.50
2019-01-13T16:04:54.208Z,10.43
2019-01-13T16:14:07.929Z,9.93
2019-01-13T16:16:40.155Z,9.90
2019-01-13T16:19:15.458Z,11.00
2019-01-13T16:22:28.015Z,9.90
2019-01-13T16:31:11.317Z,11.17
2019-01-13T16:33:54.052Z,11.80
2019-01-13T16:36:58.202Z,13.07
2019-01-13T16:43:05.399Z,12.43
2019-01-13T16:46:11.480Z,15.00
2019-01-13T16:49:44.987Z,14.13
2019-01-13T16:55:25.819Z,10.77
2019-01-13T16:58:27.906Z,10.53
2019-01-13T17:01:33.377Z,16.13
2019-01-13T17:14:55.830Z,10.93
2019-01-13T17:23:53.148Z,10.70
2019-01-13T17:26:53.887Z,10.20
2019-01-13T17:30:00.615Z,10.50
2019-01-13T17:32:37.655Z,10.93
2019-01-13T17:35:26.202Z,9.80
2019-01-13T17:38:36.896Z,10.10
2019-01-13T17:41:12.959Z,10.03
2019-01-13T17:47:54.626Z,9.33
2019-01-13T17:50:37.085Z,8.97
2019-01-13T17:53:27.320Z,9.77
2019-01-13T17:56:33.529Z,9.93
2019-01-13T17:59:24.594Z,9.20
2019-01-13T18:02:24.456Z,9.67
2019-01-13T18:04:58.332Z,10.03
2019-01-13T18:07:35.926Z,10.00
2019-01-13T18:10:08.779Z,9.40
2019-01-13T18:12:39.420Z,10.37
2019-01-13T18:15:11.674Z,9.70
2019-01-13T18:17:45.221Z,9.67
2019-01-13T18:20:21.618Z,11.20
2019-01-13T18:22:56.701Z,10.63
2019-01-13T18:25:29.611Z,12.10
2019-01-13T18:28:01.995Z,12.80
2019-01-13T18:30:35.680Z,11.53
2019-01-13T18:33:08.717Z,11.23
2019-01-13T18:35:39.210Z,10.47
2019-01-13T18:38:12.621Z,10.47
2019-01-13T18:40:44.574Z,10.43
2019-01-13T18:44:16.429Z,10.07
2019-01-13T18:47:08.299Z,10.30
2019-01-13T18:50:47.148Z,10.07
2019-01-13T18:53:56.018Z,10.97
2019-01-13T18:57:06.008Z,10.17
2019-01-13T19:00:04.875Z,10.87
2019-01-13T19:03:02.328Z,11.27
2019-01-13T19:06:13.903Z,11.23
2019-01-13T19:09:07.672Z,10.77
2019-01-13T19:12:04.244Z,11.20
2019-01-13T19:14:43.720Z,11.83
2019-01-13T19:17:26.457Z,10.43
2019-01-13T19:20:15.153Z,9.97
2019-01-13T19:23:05.132Z,11.00
2019-01-13T19:25:41.549Z,9.27
2019-01-13T19:28:23.183Z,9.50
2019-01-13T19:34:29.524Z,9.57
2019-01-13T19:40:33.396Z,9.50
2019-01-13T19:43:40.766Z,9.27
2019-01-13T19:47:22.034Z,9.63
2019-01-13T19:54:42.821Z,9.00
2019-01-13T20:12:17.199Z,9.17
2019-01-13T20:18:10.466Z,8.47
2019-01-13T20:20:48.787Z,8.10
2019-01-13T20:23:21.932Z,8.47
2019-01-13T20:26:00.871Z,8.40
2019-01-13T20:34:57.426Z,7.17
2019-01-13T20:37:39.251Z,7.77
2019-01-13T20:41:10.952Z,7.73
2019-01-13T20:47:06.671Z,7.33
2019-01-13T20:49:59.044Z,7.60
2019-01-13T20:52:43.303Z,7.60
2019-01-13T20:55:25.395Z,7.17
2019-01-13T21:04:35.580Z,6.77
2019-01-13T21:07:29.388Z,7.00
2019-01-13T21:10:08.638Z,6.60
2019-01-13T21:13:07.529Z,6.33
2019-01-13T21:15:44.310Z,6.10
2019-01-13T21:18:28.008Z,6.03
2019-01-13T21:28:26.812Z,5.57
2019-01-13T21:34:11.086Z,5.63
2019-01-13T21:46:28.773Z,4.70
2019-01-13T21:49:39.698Z,4.13
2019-01-13T21:56:08.628Z,4.33
2019-01-13T21:58:58.358Z,3.63
2019-01-13T22:05:30.637Z,3.97
2019-01-13T22:09:39.915Z,3.77
2019-01-13T22:11:58.261Z,3.40
2019-01-13T22:18:07.525Z,3.23
2019-01-13T22:21:28.679Z,3.20
2019-01-13T22:24:37.739Z,3.60
2019-01-13T22:27:52.606Z,2.60
2019-01-13T22:30:42.541Z,2.70
2019-01-13T22:36:15.524Z,2.60
2019-01-13T22:42:44.823Z,2.10
2019-01-13T22:45:21.432Z,1.93
2019-01-13T22:48:18.674Z,2.10
2019-01-13T22:59:57.372Z,1.90
2019-01-13T23:05:55.440Z,1.70
2019-01-13T23:12:29.163Z,1.90
2019-01-13T23:15:26.921Z,1.80
2019-01-13T23:30:36.308Z,1.80
2019-01-13T23:36:42.650Z,1.60
2019-01-13T23:40:29.675Z,1.60
2019-01-13T23:43:31.689Z,1.60
2019-01-13T23:52:28.638Z,1.70
2019-01-13T23:55:32.917Z,1.60
2019-01-13T23:58:57.264Z,1.70
